createdAt,value
2022-12-17T00:01:54.312Z,95.78
2022-12-17T00:04:39.903Z,95.65
2022-12-17T00:07:25.381Z,96.14
2022-12-17T00:10:10.862Z,96.07
2022-12-17T00:12:56.581Z,96.01
2022-12-17T00:15:43.199Z,96.54
2022-12-17T00:18:30.942Z,96.02
2022-12-17T00:21:19.153Z,96.00
2022-12-17T00:24:06.024Z,95.64
2022-12-17T00:26:52.523Z,95.31
2022-12-17T00:29:38.310Z,95.37
2022-12-17T00:32:24.170Z,95.99
2022-12-17T00:35:10.644Z,95.63
2022-12-17T00:37:59.441Z,95.67
2022-12-17T00:40:44.914Z,95.64
2022-12-17T00:43:31.888Z,95.54
2022-12-17T00:46:17.954Z,95.54
2022-12-17T00:49:03.984Z,95.34
2022-12-17T00:51:49.957Z,95.42
2022-12-17T00:54:35.260Z,95.67
2022-12-17T00:57:20.677Z,95.31
2022-12-17T01:00:06.173Z,95.30
2022-12-17T01:02:51.855Z,95.30
2022-12-17T01:05:37.679Z,95.34
2022-12-17T01:08:33.644Z,95.51
2022-12-17T01:11:26.131Z,95.54
2022-12-17T01:14:12.682Z,95.76
2022-12-17T01:16:58.338Z,95.44
2022-12-17T01:19:43.938Z,95.81
2022-12-17T01:22:29.445Z,95.97
2022-12-17T01:25:14.852Z,95.72
2022-12-17T01:28:00.353Z,96.08
2022-12-17T01:30:45.901Z,95.98
2022-12-17T01:33:33.032Z,96.19
2022-12-17T01:36:19.193Z,95.84
2022-12-17T01:39:04.793Z,95.75
2022-12-17T01:41:50.643Z,96.06
2022-12-17T01:44:57.785Z,96.20
2022-12-17T01:47:56.456Z,96.45
2022-12-17T01:50:47.464Z,96.40
2022-12-17T01:53:37.576Z,96.64
2022-12-17T01:56:24.680Z,96.40
2022-12-17T01:59:10.992Z,96.29
2022-12-17T02:01:57.819Z,96.49
2022-12-17T02:04:44.224Z,96.38
2022-12-17T02:07:48.194Z,96.35
2022-12-17T02:11:12.496Z,96.74
2022-12-17T02:14:05.398Z,96.27
2022-12-17T02:17:12.698Z,96.65
2022-12-17T02:20:42.874Z,96.72
2022-12-17T02:24:03.943Z,96.23
2022-12-17T02:27:02.336Z,96.46
2022-12-17T02:30:00.291Z,96.60
2022-12-17T02:32:46.783Z,96.90
2022-12-17T02:35:40.966Z,96.54
2022-12-17T02:38:42.583Z,96.69
2022-12-17T02:41:47.732Z,96.53
2022-12-17T02:44:37.808Z,97.05
2022-12-17T02:47:27.997Z,96.74
2022-12-17T02:50:13.689Z,97.04
2022-12-17T02:53:06.612Z,96.48
2022-12-17T02:55:55.080Z,96.68
2022-12-17T02:58:40.546Z,96.87
2022-12-17T03:01:26.265Z,96.60
2022-12-17T03:04:11.993Z,96.76
2022-12-17T03:06:57.457Z,96.58
2022-12-17T03:09:42.789Z,96.65
2022-12-17T03:12:28.379Z,96.92
2022-12-17T03:15:13.892Z,96.21
2022-12-17T03:17:59.304Z,96.80
2022-12-17T03:20:45.063Z,96.87
2022-12-17T03:23:31.243Z,96.42
2022-12-17T03:26:21.713Z,96.24
2022-12-17T03:29:07.534Z,95.98
2022-12-17T03:31:52.821Z,96.33
2022-12-17T03:34:38.233Z,96.90
2022-12-17T03:37:24.285Z,96.33
2022-12-17T03:40:09.646Z,96.94
2022-12-17T03:42:55.552Z,96.33
2022-12-17T03:45:41.401Z,96.58
2022-12-17T03:48:33.912Z,96.29
2022-12-17T03:51:20.172Z,96.49
2022-12-17T03:54:06.591Z,96.35
2022-12-17T03:56:52.315Z,96.59
2022-12-17T03:59:37.784Z,96.64
2022-12-17T04:02:24.084Z,96.36
2022-12-17T04:05:13.800Z,96.55
2022-12-17T04:08:01.977Z,96.37
2022-12-17T04:10:47.612Z,96.16
2022-12-17T04:13:38.793Z,96.16
2022-12-17T04:16:26.175Z,95.50
2022-12-17T04:19:11.560Z,95.40
2022-12-17T04:21:56.974Z,96.00
2022-12-17T04:24:42.534Z,95.88
2022-12-17T04:27:28.044Z,96.10
2022-12-17T04:30:13.612Z,95.75
2022-12-17T04:32:59.016Z,96.46
2022-12-17T04:35:44.487Z,96.27
2022-12-17T04:38:29.857Z,96.59
2022-12-17T04:41:15.271Z,95.58
2022-12-17T04:44:03.243Z,95.97
2022-12-17T04:46:49.456Z,96.08
2022-12-17T04:49:35.286Z,96.25
2022-12-17T04:52:20.772Z,95.96
2022-12-17T04:55:06.769Z,96.03
2022-12-17T04:57:52.987Z,95.54
2022-12-17T05:00:38.905Z,96.13
2022-12-17T05:03:35.553Z,96.28
2022-12-17T05:06:21.657Z,96.37
2022-12-17T05:09:07.279Z,96.13
2022-12-17T05:11:53.166Z,96.01
2022-12-17T05:14:38.947Z,95.71
2022-12-17T05:17:25.159Z,95.48
2022-12-17T05:20:10.695Z,95.76
2022-12-17T05:22:56.568Z,95.76
2022-12-17T05:25:42.602Z,96.24
2022-12-17T05:28:28.331Z,96.27
2022-12-17T05:31:14.991Z,95.70
2022-12-17T05:34:01.652Z,95.61
2022-12-17T05:36:47.194Z,95.07
2022-12-17T05:39:32.942Z,95.35
2022-12-17T05:42:18.449Z,94.92
2022-12-17T05:45:03.770Z,95.40
2022-12-17T05:47:49.194Z,94.77
2022-12-17T05:50:35.151Z,94.83
2022-12-17T05:53:24.534Z,94.76
2022-12-17T05:56:12.226Z,95.21
2022-12-17T05:58:58.607Z,93.96
2022-12-17T06:01:44.070Z,95.00
2022-12-17T06:04:30.006Z,94.54
2022-12-17T06:07:15.571Z,94.35
2022-12-17T06:10:01.386Z,95.36
2022-12-17T06:12:47.049Z,95.03
2022-12-17T06:15:32.469Z,95.56
2022-12-17T06:18:18.688Z,95.36
2022-12-17T06:21:05.357Z,95.11
2022-12-17T06:23:51.105Z,94.52
2022-12-17T06:26:38.140Z,94.57
2022-12-17T06:29:23.340Z,95.57
2022-12-17T06:32:08.862Z,95.50
2022-12-17T06:34:54.337Z,94.80
2022-12-17T06:37:39.894Z,94.68
2022-12-17T06:40:26.349Z,94.45
2022-12-17T06:43:15.889Z,94.12
2022-12-17T06:46:01.560Z,94.25
2022-12-17T06:48:47.434Z,95.12
2022-12-17T06:51:33.015Z,95.56
2022-12-17T06:54:18.791Z,94.97
2022-12-17T06:57:05.216Z,95.52
2022-12-17T06:59:50.852Z,94.95
2022-12-17T07:02:36.494Z,94.29
2022-12-17T07:05:28.452Z,95.45
2022-12-17T07:08:19.475Z,95.04
2022-12-17T07:11:05.277Z,96.00
2022-12-17T07:13:51.458Z,95.88
2022-12-17T07:16:51.541Z,95.90
2022-12-17T07:19:37.304Z,95.85
2022-12-17T07:22:22.922Z,96.09
2022-12-17T07:25:08.689Z,95.48
2022-12-17T07:27:54.509Z,95.61
2022-12-17T07:30:39.957Z,94.77
2022-12-17T07:33:28.427Z,94.43
2022-12-17T07:36:15.225Z,94.62
2022-12-17T07:39:01.251Z,94.41
2022-12-17T07:41:46.915Z,94.47
2022-12-17T07:44:32.684Z,94.51
2022-12-17T07:47:18.148Z,94.30
2022-12-17T07:50:03.605Z,94.25
2022-12-17T07:52:49.715Z,93.90
2022-12-17T07:55:35.528Z,94.12
2022-12-17T07:58:27.712Z,94.00
2022-12-17T08:01:13.975Z,93.20
2022-12-17T08:04:02.148Z,93.79
2022-12-17T08:06:48.078Z,94.25
2022-12-17T08:09:47.496Z,93.45
2022-12-17T08:12:32.855Z,93.39
2022-12-17T08:15:18.697Z,92.82
2022-12-17T08:18:04.409Z,92.69
2022-12-17T08:20:50.437Z,92.58
2022-12-17T08:23:36.603Z,93.39
2022-12-17T08:26:22.659Z,94.31
2022-12-17T08:29:08.092Z,94.23
2022-12-17T08:31:53.508Z,93.75
2022-12-17T08:34:38.878Z,93.34
2022-12-17T08:37:24.623Z,93.44
2022-12-17T08:40:09.917Z,93.20
2022-12-17T08:42:55.800Z,93.12
2022-12-17T08:45:49.575Z,93.03
2022-12-17T08:48:35.524Z,92.38
2022-12-17T08:51:20.929Z,93.01
2022-12-17T08:54:06.409Z,93.42
2022-12-17T08:56:52.095Z,93.89
2022-12-17T08:59:38.107Z,93.14
2022-12-17T09:02:23.864Z,93.34
2022-12-17T09:05:09.754Z,93.15
2022-12-17T09:07:55.911Z,92.59
2022-12-17T09:10:41.613Z,92.92
2022-12-17T09:13:27.081Z,91.87
2022-12-17T09:16:14.899Z,93.01
2022-12-17T09:19:01.793Z,93.27
2022-12-17T09:21:50.069Z,94.54
2022-12-17T09:24:35.789Z,94.46
2022-12-17T09:27:21.316Z,94.12
2022-12-17T09:30:06.688Z,94.23
2022-12-17T09:32:52.376Z,94.65
2022-12-17T09:35:48.815Z,93.53
2022-12-17T09:38:37.869Z,93.29
2022-12-17T09:42:18.877Z,92.95
2022-12-17T09:45:55.455Z,92.90
2022-12-17T09:49:16.808Z,93.19
2022-12-17T09:52:02.671Z,93.24
2022-12-17T09:55:07.098Z,93.36
2022-12-17T09:57:56.341Z,93.77
2022-12-17T10:00:47.497Z,94.11
2022-12-17T10:03:42.603Z,94.29
2022-12-17T10:06:36.131Z,94.32
2022-12-17T10:09:35.260Z,94.53
2022-12-17T10:12:39.024Z,94.06
2022-12-17T10:15:26.706Z,94.30
2022-12-17T10:18:12.561Z,94.71
2022-12-17T10:21:42.953Z,94.56
2022-12-17T10:24:30.765Z,93.23
2022-12-17T10:27:17.077Z,93.05
2022-12-17T10:30:03.490Z,92.87
2022-12-17T10:32:49.691Z,92.58
2022-12-17T10:35:44.289Z,92.46
2022-12-17T10:38:48.035Z,92.24
2022-12-17T10:41:53.771Z,92.01
2022-12-17T10:44:56.436Z,92.30
2022-12-17T10:47:46.551Z,92.23
2022-12-17T10:50:42.130Z,93.23
2022-12-17T10:53:43.712Z,92.51
2022-12-17T10:56:45.490Z,92.89
2022-12-17T10:59:43.889Z,92.98
2022-12-17T11:02:44.697Z,92.07
2022-12-17T11:05:59.757Z,91.52
2022-12-17T11:08:45.882Z,91.83
2022-12-17T11:11:33.746Z,91.32
2022-12-17T11:14:22.963Z,91.67
2022-12-17T11:17:23.430Z,91.10
2022-12-17T11:20:20.490Z,90.82
2022-12-17T11:23:19.112Z,89.91
2022-12-17T11:26:21.571Z,89.53
2022-12-17T11:29:08.032Z,89.30
2022-12-17T11:32:28.924Z,88.99
2022-12-17T11:35:48.961Z,88.60
2022-12-17T11:38:51.859Z,88.45
2022-12-17T11:42:12.102Z,89.54
2022-12-17T11:45:45.480Z,91.32
2022-12-17T11:48:58.997Z,92.29
2022-12-17T11:52:12.600Z,93.00
2022-12-17T11:55:30.441Z,92.28
2022-12-17T11:58:50.194Z,91.39
2022-12-17T12:02:28.474Z,90.82
2022-12-17T12:06:03.791Z,90.15
2022-12-17T12:09:19.557Z,90.35
2022-12-17T12:12:52.934Z,91.05
2022-12-17T12:16:33.376Z,89.52
2022-12-17T12:19:43.387Z,89.65
2022-12-17T12:22:49.609Z,90.01
2022-12-17T12:26:23.867Z,90.17
2022-12-17T12:29:39.487Z,89.75
2022-12-17T12:32:49.699Z,89.71
2022-12-17T12:35:42.884Z,89.81
2022-12-17T12:38:50.882Z,89.76
2022-12-17T12:42:16.804Z,90.81
2022-12-17T12:45:34.069Z,90.11
2022-12-17T12:49:03.553Z,89.85
2022-12-17T12:51:54.629Z,90.84
2022-12-17T12:54:50.530Z,91.08
2022-12-17T12:57:59.552Z,90.75
2022-12-17T13:00:58.558Z,91.49
2022-12-17T13:03:55.868Z,91.47
2022-12-17T13:06:56.893Z,92.06
2022-12-17T13:09:49.049Z,92.02
2022-12-17T13:12:54.824Z,91.90
2022-12-17T13:15:41.135Z,91.39
2022-12-17T13:18:36.214Z,91.78
2022-12-17T13:21:26.674Z,90.90
2022-12-17T13:23:53.906Z,90.84
2022-12-17T13:26:39.277Z,91.17
2022-12-17T13:29:24.790Z,90.77
2022-12-17T13:32:23.412Z,90.14
2022-12-17T13:35:34.179Z,90.48
2022-12-17T13:38:38.564Z,90.28
2022-12-17T13:41:18.257Z,90.45
2022-12-17T13:43:54.485Z,91.00
2022-12-17T13:46:29.973Z,90.42
2022-12-17T13:49:04.495Z,90.69
2022-12-17T13:51:35.385Z,90.13
2022-12-17T13:54:04.659Z,90.39
2022-12-17T13:56:37.691Z,90.06
2022-12-17T13:59:09.580Z,90.32
2022-12-17T14:01:49.043Z,90.46
2022-12-17T14:04:29.924Z,90.91
2022-12-17T14:07:05.855Z,91.19
2022-12-17T14:09:43.046Z,91.28
2022-12-17T14:12:24.651Z,91.23
2022-12-17T14:15:08.554Z,90.62
2022-12-17T14:17:44.031Z,90.74
2022-12-17T14:20:22.005Z,90.84
2022-12-17T14:23:32.253Z,91.05
2022-12-17T14:25:59.812Z,90.89
2022-12-17T14:28:50.281Z,90.65
2022-12-17T14:31:29.885Z,90.39
2022-12-17T14:34:11.696Z,91.08
2022-12-17T14:36:44.849Z,90.96
2022-12-17T14:39:26.666Z,90.77
2022-12-17T14:42:25.435Z,91.05
2022-12-17T14:44:57.163Z,91.90
2022-12-17T14:47:33.323Z,91.81
2022-12-17T14:50:12.323Z,91.69
2022-12-17T14:52:55.449Z,91.39
2022-12-17T14:55:55.703Z,91.28
2022-12-17T14:58:26.172Z,91.00
2022-12-17T15:01:11.261Z,91.45
2022-12-17T15:03:48.053Z,91.19
2022-12-17T15:06:20.402Z,90.89
2022-12-17T15:08:51.258Z,91.11
2022-12-17T15:11:24.145Z,91.70
2022-12-17T15:13:56.298Z,92.13
2022-12-17T15:16:24.173Z,91.63
2022-12-17T15:18:51.209Z,92.17
2022-12-17T15:21:21.915Z,92.50
2022-12-17T15:23:49.801Z,92.34
2022-12-17T15:26:17.373Z,92.27
2022-12-17T15:28:45.118Z,91.55
2022-12-17T15:31:14.936Z,91.73
2022-12-17T15:33:42.896Z,92.56
2022-12-17T15:36:14.001Z,91.81
2022-12-17T15:38:41.270Z,92.08
2022-12-17T15:41:27.200Z,92.38
2022-12-17T15:43:54.190Z,91.80
2022-12-17T15:46:21.421Z,92.51
2022-12-17T15:48:50.594Z,91.79
2022-12-17T15:51:24.082Z,91.30
2022-12-17T15:58:19.061Z,92.16
2022-12-17T16:00:46.108Z,92.31
2022-12-17T16:03:13.186Z,91.90
2022-12-17T16:05:40.231Z,91.85
2022-12-17T16:08:07.756Z,92.25
2022-12-17T16:10:34.822Z,92.33
2022-12-17T16:13:01.850Z,92.17
2022-12-17T16:15:29.121Z,92.17
2022-12-17T16:19:07.520Z,91.72
2022-12-17T16:21:34.565Z,92.14
2022-12-17T16:24:01.549Z,92.68
2022-12-17T16:26:28.592Z,92.26
2022-12-17T16:28:58.718Z,92.47
2022-12-17T16:31:26.711Z,92.31
2022-12-17T16:33:53.846Z,91.95
2022-12-17T16:36:22.020Z,91.72
2022-12-17T16:38:54.699Z,91.78
2022-12-17T16:41:23.203Z,92.07
2022-12-17T16:43:50.282Z,92.35
2022-12-17T16:46:34.897Z,92.64
2022-12-17T16:49:23.919Z,93.15
2022-12-17T16:51:57.822Z,92.21
2022-12-17T16:54:30.919Z,92.58
2022-12-17T16:56:58.164Z,92.56
2022-12-17T16:59:25.295Z,92.42
2022-12-17T17:01:52.813Z,92.55
2022-12-17T17:04:23.057Z,92.38
2022-12-17T17:06:55.716Z,91.99
2022-12-17T17:09:25.335Z,92.71
2022-12-17T17:11:57.102Z,92.71
2022-12-17T17:14:25.067Z,92.14
2022-12-17T17:16:52.987Z,92.33
2022-12-17T17:19:20.526Z,92.02
2022-12-17T17:21:54.704Z,92.49
2022-12-17T17:24:26.538Z,92.46
2022-12-17T17:26:55.125Z,92.35
2022-12-17T17:29:22.480Z,92.07
2022-12-17T17:34:36.593Z,91.71
2022-12-17T17:37:04.127Z,91.87
2022-12-17T17:39:33.057Z,91.89
2022-12-17T17:42:00.670Z,92.05
2022-12-17T17:44:27.867Z,92.07
2022-12-17T17:46:54.861Z,92.23
2022-12-17T17:49:22.259Z,91.87
2022-12-17T17:52:09.091Z,91.88
2022-12-17T17:54:36.678Z,91.46
2022-12-17T17:57:03.747Z,91.63
2022-12-17T17:59:33.804Z,91.94
2022-12-17T18:02:02.735Z,91.48
2022-12-17T18:04:30.755Z,91.53
2022-12-17T18:09:44.770Z,91.57
2022-12-17T18:12:30.576Z,91.75
2022-12-17T18:15:15.307Z,92.71
2022-12-17T18:17:45.838Z,92.52
2022-12-17T18:20:13.822Z,92.08
2022-12-17T18:22:40.922Z,91.77
2022-12-17T18:25:08.450Z,91.58
2022-12-17T18:27:35.416Z,91.36
2022-12-17T18:30:02.510Z,91.03
2022-12-17T18:32:29.522Z,91.44
2022-12-17T18:34:56.514Z,91.39
2022-12-17T18:37:23.546Z,91.34
2022-12-17T18:39:50.568Z,91.83
2022-12-17T18:42:36.064Z,91.60
2022-12-17T18:45:04.017Z,91.93
2022-12-17T18:47:31.266Z,91.82
2022-12-17T18:49:58.353Z,91.29
2022-12-17T18:52:25.670Z,92.07
2022-12-17T18:54:52.762Z,91.78
2022-12-17T18:57:19.766Z,92.09
2022-12-17T18:59:46.860Z,92.24
2022-12-17T19:02:15.759Z,92.65
2022-12-17T19:04:43.369Z,92.39
2022-12-17T19:07:11.261Z,92.15
2022-12-17T19:09:40.153Z,92.02
2022-12-17T19:12:09.604Z,91.96
2022-12-17T19:14:37.146Z,92.40
2022-12-17T19:17:05.833Z,91.81
2022-12-17T19:19:33.636Z,92.23
2022-12-17T19:22:00.879Z,92.25
2022-12-17T19:24:28.223Z,91.89
2022-12-17T19:26:55.806Z,91.63
2022-12-17T19:29:22.936Z,91.66
2022-12-17T19:31:50.623Z,92.29
2022-12-17T19:34:19.143Z,91.82
2022-12-17T19:36:47.329Z,91.76
2022-12-17T19:39:18.924Z,91.81
2022-12-17T19:41:46.558Z,92.20
2022-12-17T19:44:16.793Z,92.02
2022-12-17T19:46:44.469Z,92.74
2022-12-17T19:49:16.575Z,92.68
2022-12-17T19:51:44.865Z,92.39
2022-12-17T19:54:15.401Z,92.45
2022-12-17T19:56:45.147Z,92.38
2022-12-17T19:59:13.917Z,92.45
2022-12-17T20:01:46.403Z,91.86
2022-12-17T20:04:17.519Z,92.18
2022-12-17T20:06:46.015Z,91.92
2022-12-17T20:09:14.644Z,91.59
2022-12-17T20:11:42.004Z,91.64
2022-12-17T20:14:18.582Z,91.35
2022-12-17T20:16:50.699Z,91.97
2022-12-17T20:19:33.312Z,91.91
2022-12-17T20:22:04.541Z,91.56
2022-12-17T20:24:32.392Z,91.74
2022-12-17T20:27:00.310Z,91.20
2022-12-17T20:29:27.621Z,91.89
2022-12-17T20:31:55.689Z,91.59
2022-12-17T20:34:23.983Z,91.94
2022-12-17T20:36:53.028Z,91.40
2022-12-17T20:39:27.697Z,91.82
2022-12-17T20:41:56.635Z,92.00
2022-12-17T20:44:23.729Z,91.68
2022-12-17T20:46:53.791Z,91.94
2022-12-17T20:49:20.964Z,92.00
2022-12-17T20:51:49.014Z,91.47
2022-12-17T20:54:16.361Z,91.45
2022-12-17T20:56:44.341Z,91.92
2022-12-17T20:59:18.781Z,91.07
2022-12-17T21:01:52.775Z,91.59
2022-12-17T21:04:23.881Z,91.92
2022-12-17T21:06:51.257Z,91.60
2022-12-17T21:09:22.425Z,91.26
2022-12-17T21:11:49.772Z,91.35
2022-12-17T21:14:19.656Z,91.46
2022-12-17T21:16:47.492Z,91.32
2022-12-17T21:19:19.083Z,91.80
2022-12-17T21:21:47.075Z,91.64
2022-12-17T21:24:14.491Z,91.43
2022-12-17T21:26:44.824Z,91.55
2022-12-17T21:29:12.921Z,92.36
2022-12-17T21:31:43.829Z,91.77
2022-12-17T21:34:22.395Z,93.45
2022-12-17T21:36:50.865Z,93.29
2022-12-17T21:39:19.258Z,93.37
2022-12-17T21:42:06.791Z,93.39
2022-12-17T21:44:35.130Z,93.70
2022-12-17T21:47:02.449Z,93.20
2022-12-17T21:49:30.791Z,93.13
2022-12-17T21:51:59.497Z,93.19
2022-12-17T21:54:27.462Z,92.44
2022-12-17T21:56:55.265Z,92.24
2022-12-17T21:59:25.542Z,91.43
2022-12-17T22:01:54.176Z,91.98
2022-12-17T22:04:21.665Z,91.83
2022-12-17T22:06:52.978Z,92.07
2022-12-17T22:09:28.922Z,91.71
2022-12-17T22:12:31.283Z,92.80
2022-12-17T22:14:58.786Z,93.20
2022-12-17T22:17:26.780Z,92.24
2022-12-17T22:19:54.942Z,92.17
2022-12-17T22:22:22.022Z,92.04
2022-12-17T22:24:49.073Z,91.75
2022-12-17T22:27:16.527Z,92.34
2022-12-17T22:30:02.377Z,92.17
2022-12-17T22:32:48.216Z,92.85
2022-12-17T22:36:04.962Z,92.75
2022-12-17T22:40:55.024Z,93.78
2022-12-17T22:44:32.173Z,94.18
2022-12-17T22:44:44.078Z,93.90
2022-12-17T22:46:27.987Z,93.96
2022-12-17T22:48:57.366Z,93.92
2022-12-17T22:51:36.786Z,93.98
2022-12-17T22:54:10.133Z,93.12
2022-12-17T22:56:48.495Z,92.85
2022-12-17T22:59:27.684Z,92.89
2022-12-17T23:01:54.956Z,92.13
2022-12-17T23:04:22.327Z,92.56
2022-12-17T23:06:50.174Z,92.29
2022-12-17T23:09:19.723Z,91.58
2022-12-17T23:11:49.220Z,91.63
2022-12-17T23:14:18.209Z,91.83
2022-12-17T23:16:45.989Z,91.55
2022-12-17T23:19:13.829Z,91.36
2022-12-17T23:21:41.509Z,91.81
2022-12-17T23:24:09.488Z,91.74
2022-12-17T23:26:38.292Z,91.75
2022-12-17T23:29:17.660Z,91.41
2022-12-17T23:31:47.004Z,92.04
2022-12-17T23:34:14.585Z,91.60
2022-12-17T23:36:41.565Z,91.53
2022-12-17T23:39:08.932Z,91.26
2022-12-17T23:41:36.068Z,91.48
2022-12-17T23:44:03.177Z,91.22
2022-12-17T23:46:31.539Z,91.69
2022-12-17T23:48:58.729Z,90.84
2022-12-17T23:51:26.596Z,91.75
2022-12-17T23:53:56.384Z,91.41
2022-12-17T23:56:27.077Z,90.99
2022-12-17T23:59:01.849Z,91.17
